Etusivu
METAR-TAF:

METAR-TAF

Lentoasemat :

Ateena, Kreikka

Eleftherios Venizelosin kansainvälinen lentoasema

Leveyspiiri: 37-56N, Pituuspiiri: 023-56E, korkeus merenpinnasta: 94 m

Tämänhetkinen sää

Tämä raportti tehtiin 17 minuuttia sitten, kello 20.20 UTC
Tuuli 2 kn eri suunnista
Lämpötila 25°C
Kosteus 44%
Ilmanpaine 1012 hPa
Näkyvyys 10 km tai enemmän
ei pilviä alle 1500 m:ssä eikä cumulonimbus-pilviä

METAR: LGAV 232020Z VRB02KT CAVOK 25/12 Q1012 NOSIG

Aika: 23:37 (20:37 UTC)

Sääennuste

Tämä raportti tehtiin 3 tuntia ja 37 minuuttia sitten, kello 17.00 UTC
Ennuste voimassa 23. päivästä klo 18 UTC - 24. päivään klo 18 UTC
Tuuli 5 kn eri suunnista
Näkyvyys 10 km tai enemmän
ei pilviä alle 1500 m:ssä eikä cumulonimbus-pilviä
Tulossa
24. päivästä klo 04 UTC - 24. päivään klo 06 UTC
Tuuli 14 kn pohjoisesta/koillisesta

TAF: LGAV 231700Z 2318/2418 VRB05KT CAVOK BECMG 2404/2406 03014KT

Säähavainnot ja -ennusteet yli 4000 lentoasemalta (METAR- ja TAF-raportit).

Käytössä olevat sääasemat on merkitty karttaan keltaisilla ja punaisilla pisteillä.

Aseta hiiri pisteen päälle nähdäksesi sääaseman nimen.

Klikkaa sitten nähdäksesi säähavainnot ja -ennusteet.

Kartan vaihtaminen: klikkaa mustalla rastilla varustettuja vihreitä pisteitä, niin voit zoomata sisään; viivalla varustettua vihreää pistettä, niin voit zoomata ulos tai vihreitä nuolia, niin pääset viereisille kartoille.


METAR-TAF: